createdAt,value
2023-02-23T00:00:27.883Z,10.46
2023-02-23T00:01:27.876Z,10.49
2023-02-23T00:02:27.921Z,10.46
2023-02-23T00:03:27.898Z,10.48
2023-02-23T00:04:27.869Z,10.46
2023-02-23T00:16:20.148Z,10.51
2023-02-23T00:17:21.079Z,10.48
2023-02-23T00:18:21.055Z,10.48
2023-02-23T00:19:21.118Z,10.48
2023-02-23T00:20:21.043Z,10.48
2023-02-23T00:21:21.220Z,10.46
2023-02-23T00:22:21.038Z,10.46
2023-02-23T00:23:21.051Z,10.48
2023-02-23T00:24:21.020Z,10.46
2023-02-23T00:25:21.002Z,10.46
2023-02-23T00:26:20.970Z,10.46
2023-02-23T00:27:21.033Z,10.46
2023-02-23T00:28:20.973Z,10.44
2023-02-23T00:29:20.971Z,10.44
2023-02-23T00:30:20.953Z,10.46
2023-02-23T00:31:21.207Z,10.46
2023-02-23T00:32:21.186Z,10.44
2023-02-23T00:33:20.927Z,10.46
2023-02-23T00:34:21.034Z,10.48
2023-02-23T00:35:20.900Z,10.46
2023-02-23T00:36:20.870Z,10.44
2023-02-23T00:37:20.882Z,10.46
2023-02-23T00:38:20.854Z,10.44
2023-02-23T00:39:20.946Z,10.48
2023-02-23T00:40:20.847Z,10.46
2023-02-23T00:41:21.125Z,10.48
2023-02-23T00:42:20.826Z,10.44
2023-02-23T00:43:20.817Z,10.46
2023-02-23T00:44:20.790Z,10.46
2023-02-23T00:45:20.823Z,10.48
2023-02-23T00:46:20.832Z,10.46
2023-02-23T00:47:20.795Z,10.48
2023-02-23T00:48:20.751Z,10.48
2023-02-23T00:49:20.777Z,10.49
2023-02-23T00:50:20.728Z,10.48
2023-02-23T00:51:20.830Z,10.49
2023-02-23T00:52:20.711Z,10.49
2023-02-23T00:53:20.737Z,10.51
2023-02-23T00:54:20.707Z,10.49
2023-02-23T00:55:20.685Z,10.49
2023-02-23T00:56:20.664Z,10.51
2023-02-23T00:57:20.670Z,10.49
2023-02-23T00:58:20.656Z,10.51
2023-02-23T00:59:20.686Z,10.51
2023-02-23T01:00:20.679Z,10.51
2023-02-23T01:01:21.005Z,10.53
2023-02-23T01:02:20.618Z,10.53
2023-02-23T01:03:20.621Z,10.53
2023-02-23T01:04:20.584Z,10.53
2023-02-23T01:05:20.609Z,10.53
2023-02-23T01:06:20.602Z,10.53
2023-02-23T01:07:20.569Z,10.53
2023-02-23T01:08:20.557Z,10.53
2023-02-23T01:09:20.582Z,10.51
2023-02-23T01:10:20.538Z,10.53
2023-02-23T01:11:20.716Z,10.49
2023-02-23T01:12:20.495Z,10.53
2023-02-23T01:13:20.527Z,10.53
2023-02-23T01:14:20.464Z,10.53
2023-02-23T01:15:20.469Z,10.53
2023-02-23T01:16:20.465Z,10.51
2023-02-23T01:17:20.455Z,10.53
2023-02-23T01:18:20.453Z,10.54
2023-02-23T01:19:20.426Z,10.53
2023-02-23T01:20:20.406Z,10.53
2023-02-23T01:21:20.528Z,10.51
2023-02-23T01:22:20.411Z,10.51
2023-02-23T01:23:21.206Z,10.53
2023-02-23T01:24:20.363Z,10.51
2023-02-23T01:25:20.361Z,10.53
2023-02-23T01:26:20.339Z,10.53
2023-02-23T01:27:20.329Z,10.51
2023-02-23T01:28:20.316Z,10.53
2023-02-23T01:29:20.352Z,10.53
2023-02-23T01:30:20.296Z,10.53
2023-02-23T01:31:20.713Z,10.53
2023-02-23T01:32:20.324Z,10.53
2023-02-23T01:33:20.275Z,10.53
2023-02-23T01:34:20.270Z,10.54
2023-02-23T01:35:20.252Z,10.53
2023-02-23T01:36:20.251Z,10.54
2023-02-23T01:37:20.223Z,10.53
2023-02-23T01:38:20.205Z,10.53
2023-02-23T01:39:20.238Z,10.53
2023-02-23T01:40:20.177Z,10.51
2023-02-23T01:41:20.550Z,10.53
2023-02-23T01:42:20.188Z,10.51
2023-02-23T01:43:20.202Z,10.51
2023-02-23T01:44:20.186Z,10.49
2023-02-23T01:45:20.154Z,10.51
2023-02-23T01:46:20.236Z,10.49
2023-02-23T01:47:20.123Z,10.53
2023-02-23T01:48:20.123Z,10.49
2023-02-23T01:49:20.235Z,10.49
2023-02-23T01:50:20.079Z,10.49
2023-02-23T01:51:20.331Z,10.49
2023-02-23T01:52:20.067Z,10.51
2023-02-23T01:53:20.077Z,10.49
2023-02-23T01:54:20.036Z,10.49
2023-02-23T01:55:20.044Z,10.49
2023-02-23T01:56:20.051Z,10.48
2023-02-23T01:57:19.999Z,10.46
2023-02-23T01:58:20.036Z,10.48
2023-02-23T01:59:20.001Z,10.44
2023-02-23T02:00:20.006Z,10.44
2023-02-23T02:01:20.506Z,10.46
2023-02-23T02:02:19.970Z,10.44
2023-02-23T02:03:19.998Z,10.44
2023-02-23T02:04:19.959Z,10.41
2023-02-23T02:05:19.980Z,10.40
2023-02-23T02:06:19.933Z,10.41
2023-02-23T02:07:19.939Z,10.41
2023-02-23T02:08:19.927Z,10.37
2023-02-23T02:09:19.876Z,10.37
2023-02-23T02:10:19.914Z,10.37
2023-02-23T02:11:20.150Z,10.37
2023-02-23T02:12:19.866Z,10.34
2023-02-23T02:13:19.878Z,10.35
2023-02-23T02:14:19.850Z,10.34
2023-02-23T02:15:19.944Z,10.33
2023-02-23T02:16:19.874Z,10.33
2023-02-23T02:17:19.799Z,10.34
2023-02-23T02:18:19.841Z,10.31
2023-02-23T02:19:19.793Z,10.34
2023-02-23T02:20:19.786Z,10.33
2023-02-23T02:21:20.058Z,10.31
2023-02-23T02:22:19.787Z,10.33
2023-02-23T02:23:19.733Z,10.30
2023-02-23T02:24:19.743Z,10.30
2023-02-23T02:25:19.710Z,10.33
2023-02-23T02:26:19.720Z,10.28
2023-02-23T02:27:19.699Z,10.28
2023-02-23T02:28:19.698Z,10.30
2023-02-23T02:29:19.676Z,10.28
2023-02-23T07:00:50.921Z,10.35
2023-02-23T07:01:51.937Z,10.33
2023-02-23T07:02:51.886Z,10.33
2023-02-23T07:03:51.862Z,10.35
2023-02-23T07:04:51.839Z,10.37
2023-02-23T07:05:51.889Z,10.37
2023-02-23T07:06:51.823Z,10.37
2023-02-23T07:07:51.828Z,10.37
2023-02-23T07:08:51.809Z,10.37
2023-02-23T07:09:51.774Z,10.37
2023-02-23T07:10:51.785Z,10.37
2023-02-23T07:11:51.793Z,10.38
2023-02-23T07:12:51.783Z,10.38
2023-02-23T07:13:51.749Z,10.38
2023-02-23T07:14:51.759Z,10.41
2023-02-23T07:15:51.719Z,10.41
2023-02-23T07:16:51.719Z,10.41
2023-02-23T07:17:51.715Z,10.41
2023-02-23T07:18:51.770Z,10.42
2023-02-23T07:19:51.744Z,10.41
2023-02-23T07:20:51.684Z,10.42
2023-02-23T07:21:51.675Z,10.44
2023-02-23T07:22:51.654Z,10.42
2023-02-23T07:23:51.635Z,10.46
2023-02-23T07:24:51.706Z,10.46
2023-02-23T07:25:51.617Z,10.46
2023-02-23T07:26:51.606Z,10.46
2023-02-23T07:27:51.592Z,10.48
2023-02-23T07:28:54.100Z,10.49
2023-02-23T07:29:51.594Z,10.49
2023-02-23T07:30:51.620Z,10.48
2023-02-23T07:31:51.664Z,10.48
2023-02-23T07:32:51.564Z,10.49
2023-02-23T07:33:51.517Z,10.51
2023-02-23T07:34:53.730Z,10.51
2023-02-23T07:35:51.538Z,10.54
2023-02-23T07:36:51.531Z,10.54
2023-02-23T07:37:52.250Z,10.54
2023-02-23T07:38:51.491Z,10.51
2023-02-23T07:39:51.466Z,10.51
2023-02-23T07:40:51.486Z,10.53
2023-02-23T07:41:51.471Z,10.53
2023-02-23T07:42:51.487Z,10.53
2023-02-23T07:43:51.482Z,10.53
2023-02-23T07:44:51.421Z,10.54
2023-02-23T07:45:51.426Z,10.54
2023-02-23T07:46:51.418Z,10.56
2023-02-23T07:47:51.420Z,10.59
2023-02-23T07:48:51.407Z,10.57
2023-02-23T07:49:51.369Z,10.57
2023-02-23T07:50:51.387Z,10.59
2023-02-23T07:51:51.335Z,10.59
2023-02-23T07:52:51.348Z,10.59
2023-02-23T07:53:51.325Z,10.59
2023-02-23T07:54:51.371Z,10.59
2023-02-23T07:55:51.302Z,10.60
2023-02-23T07:56:51.318Z,10.60
2023-02-23T07:57:51.273Z,10.60
2023-02-23T07:58:51.276Z,10.61
2023-02-23T07:59:51.247Z,10.60
2023-02-23T08:00:51.314Z,10.63
2023-02-23T08:01:51.235Z,10.63
2023-02-23T08:02:51.281Z,10.67
2023-02-23T08:03:51.206Z,10.64
2023-02-23T08:04:51.224Z,10.68
2023-02-23T08:05:51.189Z,10.67
2023-02-23T08:06:51.260Z,10.68
2023-02-23T08:07:51.173Z,10.68
2023-02-23T08:08:51.259Z,10.69
2023-02-23T08:09:51.166Z,10.69
2023-02-23T08:10:51.152Z,10.69
2023-02-23T08:11:51.123Z,10.69
2023-02-23T08:12:51.250Z,10.68
2023-02-23T08:13:51.123Z,10.69
2023-02-23T08:14:51.241Z,10.69
2023-02-23T08:15:51.098Z,10.69
2023-02-23T08:16:51.712Z,10.71
2023-02-23T08:17:51.081Z,10.71
2023-02-23T08:18:51.170Z,10.71
2023-02-23T08:19:51.045Z,10.72
2023-02-23T08:20:51.054Z,10.72
2023-02-23T08:21:51.027Z,10.72
2023-02-23T08:22:51.020Z,10.74
2023-02-23T08:23:51.013Z,10.75
2023-02-23T08:24:51.006Z,10.75
2023-02-23T08:25:51.012Z,10.76
2023-02-23T08:26:51.028Z,10.76
2023-02-23T08:27:50.964Z,10.78
2023-02-23T08:28:50.939Z,10.78
2023-02-23T08:29:50.983Z,10.78
2023-02-23T08:30:51.085Z,10.79
2023-02-23T08:31:51.182Z,10.79
2023-02-23T08:32:50.899Z,10.81
2023-02-23T08:33:50.912Z,10.81
2023-02-23T08:34:50.876Z,10.81
2023-02-23T08:35:50.908Z,10.81
2023-02-23T08:36:50.880Z,10.81
2023-02-23T08:37:50.939Z,10.82
2023-02-23T08:38:50.894Z,10.82
2023-02-23T08:39:50.871Z,10.82
2023-02-23T08:40:50.874Z,10.82
2023-02-23T08:41:50.857Z,10.81
2023-02-23T08:42:50.828Z,10.81
2023-02-23T08:43:50.831Z,10.79
2023-02-23T08:44:50.903Z,10.79
2023-02-23T08:45:50.825Z,10.81
2023-02-23T08:46:50.759Z,10.82
2023-02-23T08:47:50.859Z,10.82
2023-02-23T08:48:50.739Z,10.82
2023-02-23T08:49:50.743Z,10.81
2023-02-23T08:50:50.712Z,10.79
2023-02-23T08:51:50.743Z,10.79
2023-02-23T08:52:50.724Z,10.79
2023-02-23T08:53:50.768Z,10.79
2023-02-23T08:54:50.747Z,10.81
2023-02-23T08:55:50.674Z,10.81
2023-02-23T08:56:50.645Z,10.84
2023-02-23T08:57:50.722Z,10.84
2023-02-23T08:58:50.616Z,10.87
2023-02-23T08:59:50.655Z,10.89
2023-02-23T09:00:50.616Z,10.92
2023-02-23T09:01:50.672Z,10.92
2023-02-23T09:02:50.600Z,10.94
2023-02-23T09:03:50.605Z,10.93
2023-02-23T09:04:50.550Z,10.94
2023-02-23T09:05:50.571Z,10.94
2023-02-23T09:06:50.623Z,10.96
2023-02-23T09:07:50.552Z,10.97
2023-02-23T09:08:50.529Z,10.97
2023-02-23T09:09:50.521Z,11.00
2023-02-23T09:10:50.488Z,11.02
2023-02-23T09:11:50.495Z,11.04
2023-02-23T09:12:50.506Z,11.04
2023-02-23T09:13:50.479Z,11.05
2023-02-23T09:14:50.462Z,11.05
2023-02-23T09:15:50.478Z,11.07
2023-02-23T09:16:50.424Z,11.07
2023-02-23T09:17:50.451Z,11.08
2023-02-23T09:18:50.420Z,11.07
2023-02-23T09:19:50.426Z,11.07
2023-02-23T09:20:50.410Z,11.07
2023-02-23T09:21:50.405Z,11.10
2023-02-23T09:22:50.367Z,11.10
2023-02-23T09:23:50.390Z,11.08
2023-02-23T09:24:50.361Z,11.12
2023-02-23T09:25:50.343Z,11.12
2023-02-23T09:26:50.339Z,11.12
2023-02-23T09:27:50.344Z,11.14
2023-02-23T09:28:50.307Z,11.14
2023-02-23T09:29:50.310Z,11.14
2023-02-23T09:30:50.317Z,11.15
2023-02-23T09:31:50.353Z,11.15
2023-02-23T09:32:50.279Z,11.17
2023-02-23T09:33:50.281Z,11.17
2023-02-23T09:34:50.449Z,11.18
2023-02-23T09:35:50.317Z,11.18
2023-02-23T09:36:50.237Z,11.17
2023-02-23T09:37:50.226Z,11.18
2023-02-23T09:38:50.265Z,11.19
2023-02-23T09:39:50.226Z,11.18
2023-02-23T09:40:50.203Z,11.22
2023-02-23T09:41:50.253Z,11.19
2023-02-23T09:42:50.232Z,11.23
2023-02-23T09:43:50.177Z,11.23
2023-02-23T09:44:50.150Z,11.25
2023-02-23T09:45:50.176Z,11.26
2023-02-23T09:46:50.205Z,11.26
2023-02-23T09:47:50.143Z,11.25
2023-02-23T09:48:50.108Z,11.23
2023-02-23T09:49:50.126Z,11.23
2023-02-23T09:50:50.169Z,11.19
2023-02-23T09:51:50.122Z,11.23
2023-02-23T09:52:50.067Z,11.22
2023-02-23T09:53:50.646Z,11.23
2023-02-23T09:54:50.017Z,11.25
2023-02-23T09:55:50.086Z,11.29
2023-02-23T09:56:50.001Z,11.29
2023-02-23T09:57:50.060Z,11.33
2023-02-23T09:58:49.997Z,11.35
2023-02-23T09:59:50.004Z,11.37
2023-02-23T10:00:49.976Z,11.36
2023-02-23T10:01:50.117Z,11.41
2023-02-23T10:02:49.936Z,11.43
2023-02-23T10:03:49.978Z,11.41
2023-02-23T10:04:50.011Z,11.45
2023-02-23T10:05:49.935Z,11.47
2023-02-23T10:06:49.900Z,11.48
2023-02-23T10:07:49.988Z,11.50
2023-02-23T10:08:49.886Z,11.52
2023-02-23T10:09:49.898Z,11.52
2023-02-23T10:10:49.906Z,11.55
2023-02-23T10:11:49.859Z,11.57
2023-02-23T10:12:49.831Z,11.59
2023-02-23T10:13:49.868Z,11.62
2023-02-23T10:14:49.827Z,11.66
2023-02-23T10:15:49.897Z,11.66
2023-02-23T10:16:49.842Z,11.69
2023-02-23T10:17:49.862Z,11.70
2023-02-23T10:18:49.853Z,11.73
2023-02-23T10:19:49.796Z,11.75
2023-02-23T10:20:49.770Z,11.78
2023-02-23T10:21:49.772Z,11.83
2023-02-23T10:22:49.739Z,11.86
2023-02-23T10:23:49.857Z,11.86
2023-02-23T10:24:49.713Z,11.87
2023-02-23T10:25:49.804Z,11.87
2023-02-23T10:26:49.706Z,11.87
2023-02-23T10:27:49.769Z,11.86
2023-02-23T10:28:49.765Z,11.86
2023-02-23T10:29:49.741Z,11.87
2023-02-23T10:30:49.794Z,11.86
2023-02-23T10:31:49.856Z,11.84
2023-02-23T10:32:49.618Z,11.84
2023-02-23T10:33:49.622Z,11.84
2023-02-23T10:34:49.612Z,11.84
2023-02-23T10:35:50.369Z,11.84
2023-02-23T10:36:49.688Z,11.88
2023-02-23T10:37:49.693Z,11.90
2023-02-23T10:38:49.563Z,11.91
2023-02-23T10:39:49.760Z,11.94
2023-02-23T10:40:49.541Z,11.97
2023-02-23T10:41:49.546Z,11.99
2023-02-23T10:42:49.621Z,11.99
2023-02-23T10:43:49.581Z,11.97
2023-02-23T10:44:49.544Z,11.97
2023-02-23T10:45:49.572Z,11.99
2023-02-23T10:46:49.559Z,11.97
2023-02-23T10:47:49.491Z,11.99
2023-02-23T10:48:49.526Z,11.99
2023-02-23T10:49:49.471Z,11.99
2023-02-23T10:50:49.612Z,11.99
2023-02-23T10:51:49.479Z,12.00
2023-02-23T10:52:49.401Z,12.00
2023-02-23T10:53:49.456Z,12.00
2023-02-23T10:54:49.409Z,11.99
2023-02-23T10:55:49.406Z,12.02
2023-02-23T10:56:49.376Z,12.02
2023-02-23T10:57:49.373Z,12.06
2023-02-23T10:58:49.340Z,12.07
2023-02-23T10:59:49.363Z,12.07
2023-02-23T11:00:49.348Z,12.10
2023-02-23T11:02:01.318Z,12.13
2023-02-23T11:02:49.303Z,12.13
2023-02-23T11:03:52.329Z,12.18
2023-02-23T11:04:49.344Z,12.20
2023-02-23T11:05:49.310Z,12.21
2023-02-23T11:06:49.293Z,12.22
2023-02-23T11:07:49.296Z,12.27
2023-02-23T11:08:49.251Z,12.28
2023-02-23T11:09:49.673Z,12.31
2023-02-23T11:10:49.221Z,12.32
2023-02-23T11:11:49.320Z,12.35
2023-02-23T11:12:49.202Z,12.36
2023-02-23T11:13:49.227Z,12.37
2023-02-23T11:14:49.209Z,12.39
2023-02-23T11:15:51.086Z,12.40
2023-02-23T11:16:49.158Z,12.42
2023-02-23T11:17:49.208Z,12.43
2023-02-23T11:18:49.494Z,12.45
2023-02-23T11:19:49.152Z,12.47
2023-02-23T11:20:49.319Z,12.49
2023-02-23T11:21:49.161Z,12.53
2023-02-23T11:22:49.083Z,12.53
2023-02-23T11:23:49.086Z,12.53
2023-02-23T11:24:49.053Z,12.55
2023-02-23T11:25:49.581Z,12.58
2023-02-23T11:26:49.093Z,12.60
2023-02-23T11:27:49.067Z,12.61
2023-02-23T11:28:49.135Z,12.60
2023-02-23T11:29:49.138Z,12.60
2023-02-23T11:30:49.014Z,12.60
2023-02-23T11:31:49.062Z,12.57
2023-02-23T11:32:49.100Z,12.58
2023-02-23T11:33:49.040Z,12.61
2023-02-23T11:34:48.954Z,12.61
2023-02-23T11:35:48.956Z,12.62
2023-02-23T11:36:48.929Z,12.67
2023-02-23T11:37:49.003Z,12.65
2023-02-23T11:38:48.974Z,12.70
2023-02-23T11:39:48.954Z,12.70
2023-02-23T11:40:48.893Z,12.73
2023-02-23T11:41:48.906Z,12.76
2023-02-23T11:42:48.895Z,12.79
2023-02-23T11:43:48.906Z,12.82
2023-02-23T11:44:48.922Z,12.83
2023-02-23T11:45:49.035Z,12.83
2023-02-23T11:46:48.845Z,12.86
2023-02-23T11:47:49.738Z,12.87
2023-02-23T11:48:48.803Z,12.91
2023-02-23T11:49:48.874Z,12.94
2023-02-23T11:50:48.826Z,13.00
2023-02-23T11:51:48.827Z,13.03
2023-02-23T11:52:48.790Z,13.08
2023-02-23T11:53:48.786Z,13.11
2023-02-23T11:54:48.783Z,13.12
2023-02-23T11:55:48.780Z,13.16
2023-02-23T11:56:48.767Z,13.15
2023-02-23T11:57:48.834Z,13.18
2023-02-23T11:58:48.705Z,13.20
2023-02-23T11:59:48.721Z,13.22
2023-02-23T12:00:48.727Z,13.27
2023-02-23T12:01:48.726Z,13.30
2023-02-23T12:02:48.706Z,13.35
2023-02-23T12:03:48.655Z,13.38
2023-02-23T12:04:48.679Z,13.38
2023-02-23T12:05:48.658Z,13.37
2023-02-23T12:06:48.691Z,13.37
2023-02-23T12:07:48.673Z,13.35
2023-02-23T12:08:48.626Z,13.33
2023-02-23T12:09:48.599Z,13.33
2023-02-23T12:10:48.611Z,13.35
2023-02-23T12:11:48.805Z,13.37
2023-02-23T12:12:48.610Z,13.38
2023-02-23T12:13:48.576Z,13.42
2023-02-23T12:14:48.555Z,13.44
2023-02-23T12:15:48.537Z,13.42
2023-02-23T12:16:48.618Z,13.46
2023-02-23T12:17:48.534Z,13.44
2023-02-23T12:18:48.547Z,13.42
2023-02-23T12:19:48.568Z,13.42
2023-02-23T12:20:48.514Z,13.41
2023-02-23T12:21:48.472Z,13.42
2023-02-23T12:22:48.450Z,13.41
2023-02-23T12:23:49.382Z,13.41
2023-02-23T12:24:48.445Z,13.37
2023-02-23T12:25:48.433Z,13.38
2023-02-23T12:26:48.398Z,13.37
2023-02-23T12:27:48.403Z,13.37
2023-02-23T12:28:48.397Z,13.35
2023-02-23T12:29:48.381Z,13.37
2023-02-23T12:30:48.498Z,13.33
2023-02-23T12:31:48.540Z,13.33
2023-02-23T12:32:48.334Z,13.31
2023-02-23T12:33:48.346Z,13.30
2023-02-23T12:34:48.352Z,13.27
2023-02-23T12:35:48.323Z,13.23
2023-02-23T12:36:48.313Z,13.25
2023-02-23T12:37:48.291Z,13.25
2023-02-23T12:38:48.531Z,13.23
2023-02-23T12:39:48.284Z,13.23
2023-02-23T12:40:49.212Z,13.22
2023-02-23T12:41:48.234Z,13.23
2023-02-23T12:42:48.244Z,13.22
2023-02-23T12:43:48.222Z,13.19
2023-02-23T12:44:48.225Z,13.20
2023-02-23T12:45:48.303Z,13.19
2023-02-23T12:46:48.291Z,13.20
2023-02-23T12:47:48.175Z,13.22
2023-02-23T12:48:48.183Z,13.23
2023-02-23T12:49:48.145Z,13.22
2023-02-23T12:50:48.162Z,13.23
2023-02-23T12:51:48.162Z,13.23
2023-02-23T12:52:48.153Z,13.27
2023-02-23T12:53:48.128Z,13.27
2023-02-23T12:54:48.128Z,13.27
2023-02-23T12:55:48.092Z,13.27
2023-02-23T12:56:48.095Z,13.28
2023-02-23T12:57:48.070Z,13.28
2023-02-23T12:58:48.078Z,13.27
2023-02-23T12:59:48.041Z,13.28
2023-02-23T13:00:50.424Z,13.27
2023-02-23T13:01:48.083Z,13.27
2023-02-23T13:02:48.064Z,13.27
2023-02-23T13:03:48.029Z,13.22
2023-02-23T13:04:48.052Z,13.19
2023-02-23T13:05:48.155Z,13.19
2023-02-23T13:06:48.040Z,13.18
2023-02-23T13:07:47.966Z,13.18
2023-02-23T13:08:47.962Z,13.15
2023-02-23T13:09:47.963Z,13.15
2023-02-23T13:10:47.983Z,13.16
2023-02-23T13:11:47.924Z,13.16
2023-02-23T13:12:47.924Z,13.12
2023-02-23T13:13:47.910Z,13.11
2023-02-23T13:14:47.957Z,13.05
2023-02-23T13:15:47.891Z,13.05
2023-02-23T13:16:47.955Z,13.01
2023-02-23T13:17:47.860Z,12.98
2023-02-23T13:18:47.856Z,12.97
2023-02-23T13:19:47.844Z,12.95
2023-02-23T13:20:47.909Z,12.93
2023-02-23T13:21:47.824Z,12.91
2023-02-23T13:22:47.865Z,12.90
2023-02-23T13:23:47.787Z,12.91
2023-02-23T13:24:47.809Z,12.87
2023-02-23T13:25:47.797Z,12.86
2023-02-23T13:26:47.837Z,12.83
2023-02-23T13:27:47.772Z,12.85
2023-02-23T13:28:47.766Z,12.82
2023-02-23T13:29:47.725Z,12.79
2023-02-23T13:30:48.002Z,12.78
2023-02-23T13:31:47.922Z,12.76
2023-02-23T13:32:47.815Z,12.70
2023-02-23T13:33:47.681Z,12.68
2023-02-23T13:34:47.730Z,12.68
2023-02-23T13:35:47.733Z,12.68
2023-02-23T13:36:47.666Z,12.65
2023-02-23T13:37:47.653Z,12.64
2023-02-23T13:38:47.664Z,12.64
2023-02-23T13:39:47.696Z,12.62
2023-02-23T13:40:47.673Z,12.64
2023-02-23T13:41:47.610Z,12.62
2023-02-23T13:42:47.623Z,12.64
2023-02-23T13:43:47.583Z,12.62
2023-02-23T13:44:47.622Z,12.64
2023-02-23T13:45:47.596Z,12.62
2023-02-23T13:46:47.552Z,12.64
2023-02-23T13:47:47.528Z,12.65
2023-02-23T13:48:56.667Z,12.68
2023-02-23T13:49:47.519Z,12.68
2023-02-23T13:50:47.533Z,12.70
2023-02-23T13:51:47.501Z,12.70
2023-02-23T13:52:47.495Z,12.73
2023-02-23T13:53:47.483Z,12.75
2023-02-23T13:54:47.481Z,12.76
2023-02-23T13:55:49.922Z,12.80
2023-02-23T13:56:47.444Z,12.82
2023-02-23T13:57:47.421Z,12.82
2023-02-23T13:58:47.463Z,12.85
2023-02-23T13:59:47.458Z,12.85
2023-02-23T14:00:47.448Z,12.86
2023-02-23T14:01:47.509Z,12.86
2023-02-23T14:02:47.540Z,12.90
2023-02-23T14:03:47.360Z,12.93
2023-02-23T14:04:47.358Z,12.94
2023-02-23T14:05:47.352Z,12.95
2023-02-23T14:06:47.349Z,12.94
2023-02-23T14:07:47.324Z,12.93
2023-02-23T14:08:47.320Z,12.91
2023-02-23T14:09:47.308Z,12.91
2023-02-23T14:10:47.338Z,12.93
2023-02-23T14:11:47.304Z,12.95
2023-02-23T14:12:47.286Z,12.97
2023-02-23T14:13:47.264Z,12.97
2023-02-23T14:14:47.321Z,12.97
2023-02-23T14:15:47.267Z,13.00
2023-02-23T14:16:47.258Z,13.04
2023-02-23T14:17:47.211Z,13.03
2023-02-23T14:18:47.254Z,13.04
2023-02-23T14:19:47.187Z,13.04
2023-02-23T14:20:47.205Z,13.03
2023-02-23T14:21:47.199Z,13.05
2023-02-23T14:22:47.182Z,13.05
2023-02-23T14:23:47.151Z,13.08
2023-02-23T14:24:47.151Z,13.11
2023-02-23T14:25:47.142Z,13.11
2023-02-23T14:26:47.178Z,13.12
2023-02-23T14:27:47.122Z,13.12
2023-02-23T14:28:47.112Z,13.12
2023-02-23T14:29:47.138Z,13.12
2023-02-23T14:30:47.176Z,13.15
2023-02-23T14:31:47.246Z,13.15
2023-02-23T14:32:47.150Z,13.15
2023-02-23T14:33:47.049Z,13.15
2023-02-23T14:34:47.056Z,13.18
2023-02-23T14:35:47.021Z,13.20
2023-02-23T14:36:47.065Z,13.23
2023-02-23T14:37:47.002Z,13.27
2023-02-23T14:38:48.474Z,13.31
2023-02-23T14:39:46.990Z,13.31
2023-02-23T14:40:47.038Z,13.37
2023-02-23T14:41:46.980Z,13.39
2023-02-23T14:42:46.970Z,13.46
2023-02-23T14:43:46.935Z,13.49
2023-02-23T14:44:46.948Z,13.54
2023-02-23T14:45:46.924Z,13.59
2023-02-23T14:46:46.965Z,13.62
2023-02-23T14:47:46.900Z,13.67
2023-02-23T14:48:46.899Z,13.67
2023-02-23T14:49:46.897Z,13.68
2023-02-23T14:50:46.904Z,13.71
2023-02-23T14:51:46.866Z,13.74
2023-02-23T14:52:46.880Z,13.74
2023-02-23T14:53:46.824Z,13.78
2023-02-23T14:54:46.827Z,13.79
2023-02-23T14:55:46.795Z,13.81
2023-02-23T14:56:46.836Z,13.83
2023-02-23T14:57:46.893Z,13.81
2023-02-23T14:58:46.792Z,13.78
2023-02-23T14:59:46.780Z,13.75
2023-02-23T15:00:46.786Z,13.74
2023-02-23T15:01:46.783Z,13.71
2023-02-23T15:02:54.181Z,13.70
2023-02-23T15:03:46.727Z,13.68
2023-02-23T15:04:46.892Z,13.65
2023-02-23T15:05:46.703Z,13.65
2023-02-23T15:06:46.700Z,13.65
2023-02-23T15:07:46.716Z,13.63
2023-02-23T15:08:46.707Z,13.67
2023-02-23T15:09:46.669Z,13.65
2023-02-23T15:10:46.720Z,13.65
2023-02-23T15:11:46.667Z,13.63
2023-02-23T15:12:46.640Z,13.57
2023-02-23T15:13:46.636Z,13.57
2023-02-23T15:14:46.609Z,13.57
2023-02-23T15:15:46.631Z,13.54
2023-02-23T15:16:46.600Z,13.52
2023-02-23T15:17:46.584Z,13.54
2023-02-23T15:18:46.585Z,13.50
2023-02-23T15:19:46.568Z,13.50
2023-02-23T15:20:46.562Z,13.50
2023-02-23T15:21:46.526Z,13.50
2023-02-23T15:22:46.558Z,13.52
2023-02-23T15:23:46.505Z,13.50
2023-02-23T15:24:46.501Z,13.52
2023-02-23T15:25:46.484Z,13.53
2023-02-23T15:26:46.483Z,13.50
2023-02-23T15:27:46.514Z,13.47
2023-02-23T15:28:46.470Z,13.44
2023-02-23T15:29:46.462Z,13.46
2023-02-23T15:30:46.457Z,13.46
2023-02-23T15:31:46.567Z,13.41
2023-02-23T15:32:46.568Z,13.39
2023-02-23T15:33:46.433Z,13.37
2023-02-23T15:34:46.408Z,13.35
2023-02-23T15:35:46.396Z,13.35
2023-02-23T15:36:46.384Z,13.30
2023-02-23T15:37:46.645Z,13.27
2023-02-23T15:38:46.358Z,13.25
2023-02-23T15:39:46.348Z,13.22
2023-02-23T15:40:46.351Z,13.22
2023-02-23T15:41:46.330Z,13.20
2023-02-23T15:42:46.342Z,13.19
2023-02-23T15:43:46.296Z,13.18
2023-02-23T15:44:46.307Z,13.16
2023-02-23T15:45:46.315Z,13.18
2023-02-23T15:46:46.284Z,13.18
2023-02-23T15:47:46.280Z,13.15
2023-02-23T15:48:46.263Z,13.18
2023-02-23T15:49:46.249Z,13.15
2023-02-23T15:50:46.233Z,13.13
2023-02-23T15:51:46.206Z,13.12
2023-02-23T15:52:46.231Z,13.11
2023-02-23T15:53:46.196Z,13.04
2023-02-23T15:54:46.212Z,12.98
2023-02-23T15:55:46.165Z,12.95
2023-02-23T15:56:46.162Z,12.91
2023-02-23T15:57:46.286Z,12.90
2023-02-23T15:58:56.021Z,12.86
2023-02-23T15:59:46.142Z,12.83
2023-02-23T16:00:46.158Z,12.82
2023-02-23T16:01:46.100Z,12.78
2023-02-23T16:02:46.129Z,12.76
2023-02-23T16:03:46.082Z,12.75
2023-02-23T16:04:46.114Z,12.75
2023-02-23T16:05:47.249Z,12.70
2023-02-23T16:06:46.101Z,12.68
2023-02-23T16:07:46.040Z,12.65
2023-02-23T16:08:46.065Z,12.64
2023-02-23T16:09:46.032Z,12.60
2023-02-23T16:10:46.021Z,12.58
2023-02-23T16:11:45.997Z,12.55
2023-02-23T16:12:46.038Z,12.50
2023-02-23T16:13:45.978Z,12.49
2023-02-23T16:14:45.978Z,12.47
2023-02-23T16:15:45.972Z,12.43
2023-02-23T16:16:45.993Z,12.42
2023-02-23T16:17:45.951Z,12.42
2023-02-23T16:18:45.959Z,12.42
2023-02-23T16:19:45.944Z,12.40
2023-02-23T16:20:45.955Z,12.43
2023-02-23T16:21:45.916Z,12.42
2023-02-23T16:22:45.902Z,12.42
2023-02-23T16:23:45.861Z,12.43
2023-02-23T16:24:45.875Z,12.42
2023-02-23T16:25:45.876Z,12.43
2023-02-23T16:26:46.263Z,12.42
2023-02-23T16:27:45.856Z,12.42
2023-02-23T16:28:45.863Z,12.43
2023-02-23T16:29:45.798Z,12.42
2023-02-23T16:30:45.852Z,12.40
2023-02-23T16:31:46.061Z,12.43
2023-02-23T16:32:45.895Z,12.43
2023-02-23T16:33:45.772Z,12.42
2023-02-23T16:34:45.767Z,12.42
2023-02-23T16:35:45.768Z,12.43
2023-02-23T16:36:45.755Z,12.40
2023-02-23T16:37:45.720Z,12.42
2023-02-23T16:38:45.715Z,12.39
2023-02-23T16:39:45.722Z,12.39
2023-02-23T16:40:45.702Z,12.36
2023-02-23T16:41:45.704Z,12.37
2023-02-23T16:42:45.714Z,12.35
2023-02-23T16:43:45.668Z,12.32
2023-02-23T16:44:45.671Z,12.35
2023-02-23T16:45:45.697Z,12.31
2023-02-23T16:46:45.665Z,12.28
2023-02-23T16:47:45.641Z,12.25
2023-02-23T16:48:45.620Z,12.24
2023-02-23T16:49:45.602Z,12.21
2023-02-23T16:50:45.621Z,12.18
2023-02-23T16:51:45.619Z,12.20
2023-02-23T16:52:45.583Z,12.18
2023-02-23T16:53:45.575Z,12.17
2023-02-23T16:54:45.556Z,12.15
2023-02-23T16:55:45.577Z,12.17
2023-02-23T16:56:45.564Z,12.18
2023-02-23T16:57:45.550Z,12.17
2023-02-23T16:58:45.500Z,12.13
2023-02-23T16:59:45.497Z,12.17
2023-02-23T17:00:45.484Z,12.13
2023-02-23T17:01:45.501Z,12.12
2023-02-23T17:02:45.478Z,12.10
2023-02-23T17:03:52.674Z,12.07
2023-02-23T17:04:45.481Z,12.07
2023-02-23T17:05:45.454Z,12.07
2023-02-23T17:06:45.427Z,12.07
2023-02-23T17:07:45.430Z,12.07
2023-02-23T17:08:57.126Z,12.07
2023-02-23T17:09:45.397Z,12.06
2023-02-23T17:10:45.384Z,12.06
2023-02-23T17:11:45.408Z,12.06
2023-02-23T17:12:45.363Z,12.04
2023-02-23T17:13:45.351Z,12.02
2023-02-23T17:14:45.349Z,12.03
2023-02-23T17:15:45.327Z,12.02
2023-02-23T17:16:45.358Z,12.03
2023-02-23T17:17:45.327Z,11.99
2023-02-23T17:18:45.308Z,12.00
2023-02-23T17:19:45.294Z,11.99
2023-02-23T17:20:45.264Z,12.00
2023-02-23T17:21:45.311Z,11.97
2023-02-23T17:22:45.291Z,11.99
2023-02-23T17:23:45.315Z,11.99
2023-02-23T17:24:45.302Z,11.99
2023-02-23T17:25:45.289Z,11.95
2023-02-23T17:26:45.238Z,11.99
2023-02-23T17:27:45.291Z,11.97
2023-02-23T17:28:45.222Z,11.99
2023-02-23T17:29:45.315Z,11.94
2023-02-23T17:30:45.299Z,11.95
2023-02-23T17:31:45.408Z,11.95
2023-02-23T17:32:45.289Z,11.91
2023-02-23T17:33:45.201Z,11.90